createdAt,value
2022-11-15T00:02:04.633Z,1.20
2022-11-15T00:04:49.830Z,1.60
2022-11-15T00:07:54.473Z,5.60
2022-11-15T00:10:40.146Z,1.70
2022-11-15T00:13:25.458Z,0.90
2022-11-15T00:16:11.056Z,0.90
2022-11-15T00:18:57.785Z,3.40
2022-11-15T00:21:43.192Z,3.20
2022-11-15T00:24:28.571Z,1.60
2022-11-15T00:27:13.876Z,1.40
2022-11-15T00:29:58.989Z,5.20
2022-11-15T00:32:44.327Z,2.70
2022-11-15T00:35:33.138Z,0.50
2022-11-15T00:38:18.204Z,2.70
2022-11-15T00:41:09.073Z,2.50
2022-11-15T00:43:54.443Z,7.50
2022-11-15T00:46:39.983Z,3.00
2022-11-15T00:49:25.178Z,1.80
2022-11-15T00:52:10.531Z,2.50
2022-11-15T00:54:55.918Z,2.30
2022-11-15T01:00:26.955Z,4.30
2022-11-15T01:03:12.285Z,1.60
2022-11-15T01:06:00.532Z,5.50
2022-11-15T01:08:45.712Z,4.90
2022-11-15T01:11:31.275Z,2.10
2022-11-15T01:14:17.086Z,2.00
2022-11-15T01:17:04.755Z,2.30
2022-11-15T01:19:49.642Z,0.60
2022-11-15T01:22:34.959Z,1.70
2022-11-15T01:25:19.774Z,4.70
2022-11-15T01:33:36.844Z,9.30
2022-11-15T01:36:22.521Z,0.70
2022-11-15T01:39:08.319Z,1.90
2022-11-15T01:41:53.885Z,4.80
2022-11-15T01:44:50.403Z,1.60
2022-11-15T01:47:41.057Z,5.00
2022-11-15T01:50:29.768Z,3.70
2022-11-15T01:53:14.780Z,2.00
2022-11-15T01:56:02.063Z,1.70
2022-11-15T01:58:47.303Z,1.60
2022-11-15T02:01:33.072Z,0.90
2022-11-15T02:04:30.014Z,1.60
2022-11-15T02:07:17.922Z,1.60
2022-11-15T02:10:17.345Z,0.60
2022-11-15T02:13:02.831Z,1.50
2022-11-15T02:16:15.649Z,2.80
2022-11-15T02:19:28.369Z,6.30
2022-11-15T02:22:51.527Z,2.30
2022-11-15T02:26:16.532Z,0.80
2022-11-15T02:29:13.840Z,1.80
2022-11-15T02:32:19.087Z,1.70
2022-11-15T02:36:15.266Z,2.80
2022-11-15T02:39:35.458Z,1.20
2022-11-15T02:42:54.953Z,2.10
2022-11-15T02:45:47.919Z,1.30
2022-11-15T02:48:33.262Z,6.40
2022-11-15T02:51:18.400Z,2.20
2022-11-15T02:54:03.812Z,5.50
2022-11-15T02:56:49.696Z,2.00
2022-11-15T02:59:48.590Z,0.80
2022-11-15T03:03:16.256Z,0.50
2022-11-15T03:06:22.113Z,7.10
2022-11-15T03:09:56.128Z,1.20
2022-11-15T03:12:46.814Z,2.60
2022-11-15T03:15:38.963Z,1.80
2022-11-15T03:18:30.837Z,2.50
2022-11-15T03:21:16.155Z,1.20
2022-11-15T03:24:03.760Z,0.70
2022-11-15T03:26:49.072Z,2.30
2022-11-15T03:29:38.441Z,6.10
2022-11-15T03:32:26.273Z,0.80
2022-11-15T03:35:25.684Z,2.40
2022-11-15T03:38:23.002Z,0.50
2022-11-15T03:41:16.296Z,1.50
2022-11-15T03:44:17.477Z,0.50
2022-11-15T03:47:02.713Z,0.80
2022-11-15T03:49:54.132Z,0.60
2022-11-15T03:52:40.246Z,1.80
2022-11-15T03:58:10.602Z,1.00
2022-11-15T04:00:55.800Z,3.80
2022-11-15T04:03:41.322Z,3.20
2022-11-15T04:06:26.901Z,0.50
2022-11-15T04:09:12.380Z,0.80
2022-11-15T04:11:57.759Z,1.30
2022-11-15T04:15:03.104Z,1.80
2022-11-15T04:17:49.858Z,1.30
2022-11-15T04:20:53.871Z,2.30
2022-11-15T04:23:58.040Z,0.50
2022-11-15T04:26:43.515Z,4.90
2022-11-15T04:29:34.648Z,2.50
2022-11-15T04:32:19.900Z,0.70
2022-11-15T04:35:06.197Z,0.60
2022-11-15T04:37:51.370Z,5.40
2022-11-15T04:40:37.560Z,0.50
2022-11-15T04:43:23.042Z,2.80
2022-11-15T04:46:08.529Z,0.70
2022-11-15T04:48:58.275Z,1.30
2022-11-15T04:51:44.906Z,2.20
2022-11-15T04:54:30.488Z,0.50
2022-11-15T05:00:07.199Z,0.90
2022-11-15T05:03:10.575Z,1.40
2022-11-15T05:05:55.848Z,3.70
2022-11-15T05:08:41.430Z,1.60
2022-11-15T05:11:27.726Z,2.50
2022-11-15T05:14:13.409Z,2.20
2022-11-15T05:16:58.375Z,4.80
2022-11-15T05:19:45.185Z,2.80
2022-11-15T05:22:30.562Z,1.70
2022-11-15T05:25:15.858Z,1.90
2022-11-15T05:28:01.260Z,0.50
2022-11-15T05:30:46.382Z,1.40
2022-11-15T05:33:33.414Z,1.30
2022-11-15T05:36:41.303Z,4.50
2022-11-15T05:39:26.676Z,3.80
2022-11-15T05:42:15.331Z,2.80
2022-11-15T05:45:01.217Z,0.50
2022-11-15T05:47:46.390Z,1.00
2022-11-15T05:50:31.868Z,3.60
2022-11-15T05:53:18.742Z,1.60
2022-11-15T05:56:06.111Z,3.70
2022-11-15T05:58:59.082Z,0.60
2022-11-15T06:01:44.881Z,1.00
2022-11-15T06:04:30.079Z,0.70
2022-11-15T06:07:15.161Z,2.80
2022-11-15T06:10:00.475Z,6.10
2022-11-15T06:12:45.757Z,4.50
2022-11-15T06:15:33.711Z,2.00
2022-11-15T06:18:19.042Z,0.90
2022-11-15T06:21:04.522Z,4.40
2022-11-15T06:23:49.794Z,2.20
2022-11-15T06:26:35.068Z,1.90
2022-11-15T06:29:20.405Z,2.00
2022-11-15T06:32:05.718Z,1.70
2022-11-15T06:34:51.506Z,2.30
2022-11-15T06:37:36.703Z,3.10
2022-11-15T06:40:22.256Z,2.30
2022-11-15T06:43:08.144Z,1.60
2022-11-15T06:45:53.086Z,0.80
2022-11-15T06:48:38.702Z,5.90
2022-11-15T06:51:24.206Z,0.70
2022-11-15T06:54:09.547Z,5.60
2022-11-15T06:56:54.928Z,1.40
2022-11-15T06:59:40.782Z,3.10
2022-11-15T07:02:26.726Z,3.40
2022-11-15T07:05:12.793Z,2.10
2022-11-15T07:07:58.529Z,1.30
2022-11-15T07:10:43.749Z,0.60
2022-11-15T07:13:33.807Z,0.90
2022-11-15T07:16:20.036Z,8.10
2022-11-15T07:19:05.166Z,0.60
2022-11-15T07:21:50.586Z,2.90
2022-11-15T07:24:35.953Z,3.40
2022-11-15T07:27:21.439Z,0.60
2022-11-15T07:30:08.344Z,3.10
2022-11-15T07:32:57.817Z,3.20
2022-11-15T07:35:43.396Z,3.20
2022-11-15T07:38:29.189Z,1.60
2022-11-15T07:41:14.353Z,0.60
2022-11-15T07:43:59.728Z,0.60
2022-11-15T07:46:45.099Z,1.80
2022-11-15T07:49:30.147Z,0.50
2022-11-15T07:52:15.108Z,3.60
2022-11-15T07:57:46.291Z,1.30
2022-11-15T08:00:32.032Z,0.50
2022-11-15T08:03:17.777Z,1.30
2022-11-15T08:06:04.031Z,1.00
2022-11-15T08:08:49.753Z,1.10
2022-11-15T08:11:35.238Z,4.40
2022-11-15T08:17:08.204Z,2.20
2022-11-15T08:22:38.693Z,0.60
2022-11-15T08:25:26.669Z,0.70
2022-11-15T08:28:11.907Z,1.50
2022-11-15T08:30:57.782Z,0.90
2022-11-15T08:33:44.392Z,0.70
2022-11-15T08:36:39.604Z,0.70
2022-11-15T08:39:29.982Z,0.50
2022-11-15T08:42:19.786Z,3.20
2022-11-15T08:45:06.454Z,0.50
2022-11-15T08:47:54.446Z,2.40
2022-11-15T08:50:39.995Z,0.90
2022-11-15T08:53:25.364Z,1.50
2022-11-15T08:56:13.411Z,0.90
2022-11-15T08:58:58.581Z,0.70
2022-11-15T09:01:43.838Z,0.50
2022-11-15T09:04:29.258Z,0.90
2022-11-15T09:07:14.760Z,5.20
2022-11-15T09:10:01.313Z,0.50
2022-11-15T09:12:48.791Z,1.90
2022-11-15T09:15:34.131Z,0.80
2022-11-15T09:18:22.989Z,0.50
2022-11-15T09:21:09.057Z,1.10
2022-11-15T09:23:54.539Z,1.80
2022-11-15T09:29:27.029Z,1.10
2022-11-15T09:32:12.250Z,6.70
2022-11-15T09:34:58.086Z,0.90
2022-11-15T09:37:43.771Z,0.90
2022-11-15T09:43:41.255Z,1.00
2022-11-15T09:46:51.158Z,0.50
2022-11-15T09:49:39.139Z,2.30
2022-11-15T09:52:12.856Z,0.50
2022-11-15T09:54:53.801Z,0.80
2022-11-15T09:57:24.646Z,1.00
2022-11-15T10:00:44.852Z,2.80
2022-11-15T10:03:26.524Z,0.50
2022-11-15T10:05:57.467Z,1.10
2022-11-15T10:08:58.715Z,7.10
2022-11-15T10:11:37.379Z,0.50
2022-11-15T10:14:16.596Z,2.90
2022-11-15T10:16:59.486Z,0.80
2022-11-15T10:20:22.741Z,0.50
2022-11-15T10:22:52.407Z,1.30
2022-11-15T10:25:23.047Z,1.20
2022-11-15T10:28:00.234Z,5.40
2022-11-15T10:30:35.519Z,1.30
2022-11-15T10:33:24.061Z,0.60
2022-11-15T10:36:13.228Z,0.50
2022-11-15T10:38:49.178Z,0.60
2022-11-15T10:41:32.264Z,1.50
2022-11-15T10:44:12.272Z,0.50
2022-11-15T10:46:48.617Z,0.50
2022-11-15T10:49:23.312Z,1.20
2022-11-15T10:51:54.791Z,3.20
2022-11-15T10:54:40.666Z,2.00
2022-11-15T10:57:18.337Z,1.50
2022-11-15T10:59:50.652Z,3.10
2022-11-15T11:02:42.379Z,8.30
2022-11-15T11:05:39.700Z,4.60
2022-11-15T11:08:16.964Z,2.60
2022-11-15T11:11:02.740Z,1.20
2022-11-15T11:13:40.295Z,0.60
2022-11-15T11:16:15.838Z,2.70
2022-11-15T11:18:55.395Z,0.50
2022-11-15T11:22:15.670Z,1.80
2022-11-15T11:25:24.341Z,1.70
2022-11-15T11:28:29.521Z,4.40
2022-11-15T11:31:20.642Z,2.70
2022-11-15T11:34:11.855Z,0.70
2022-11-15T11:36:58.298Z,1.20
2022-11-15T11:39:38.266Z,3.70
2022-11-15T11:42:58.498Z,0.50
2022-11-15T11:45:49.710Z,3.30
2022-11-15T11:48:38.260Z,0.50
2022-11-15T11:51:21.307Z,3.80
2022-11-15T11:54:23.866Z,0.50
2022-11-15T11:56:50.703Z,0.70
2022-11-15T11:59:41.573Z,19.70
2022-11-15T12:02:29.305Z,0.50
2022-11-15T12:05:09.034Z,0.50
2022-11-15T12:07:35.668Z,0.50
2022-11-15T12:13:12.089Z,1.80
2022-11-15T12:15:46.319Z,0.90
2022-11-15T12:18:15.107Z,0.50
2022-11-15T12:21:11.338Z,1.40
2022-11-15T12:23:43.971Z,2.30
2022-11-15T12:26:24.272Z,0.50
2022-11-15T12:29:32.152Z,0.90
2022-11-15T12:32:00.422Z,0.50
2022-11-15T12:34:46.340Z,0.50
2022-11-15T12:37:41.033Z,0.50
2022-11-15T12:40:21.314Z,0.50
2022-11-15T12:45:43.338Z,0.50
2022-11-15T12:48:18.785Z,1.10
2022-11-15T12:50:52.176Z,0.60
2022-11-15T12:53:28.045Z,4.40
2022-11-15T12:56:12.689Z,0.50
2022-11-15T12:58:57.553Z,2.90
2022-11-15T13:01:33.674Z,0.50
2022-11-15T13:04:19.192Z,0.70
2022-11-15T13:07:05.445Z,1.60
2022-11-15T13:09:51.068Z,1.00
2022-11-15T13:12:26.717Z,1.10
2022-11-15T13:15:00.299Z,0.50
2022-11-15T13:17:52.251Z,3.70
2022-11-15T13:20:39.037Z,1.90
2022-11-15T13:23:11.137Z,6.10
2022-11-15T13:26:08.546Z,2.20
2022-11-15T13:28:46.591Z,1.80
2022-11-15T13:31:48.890Z,1.10
2022-11-15T13:37:21.147Z,0.90
2022-11-15T13:42:16.960Z,0.50
2022-11-15T13:45:01.994Z,0.60
2022-11-15T13:47:29.766Z,0.50
2022-11-15T13:50:01.361Z,0.50
2022-11-15T13:52:31.995Z,0.50
2022-11-15T13:55:11.518Z,0.70
2022-11-15T13:57:51.659Z,1.50
2022-11-15T14:00:43.629Z,2.10
2022-11-15T14:03:28.133Z,0.60
2022-11-15T14:06:15.774Z,0.80
2022-11-15T14:09:15.300Z,1.60
2022-11-15T14:11:55.438Z,0.50
2022-11-15T14:14:24.455Z,0.50
2022-11-15T14:16:59.575Z,1.10
2022-11-15T14:19:26.227Z,0.50
2022-11-15T14:25:34.516Z,0.50
2022-11-15T14:28:22.598Z,3.80
2022-11-15T14:30:51.218Z,5.40
2022-11-15T14:33:20.590Z,0.50
2022-11-15T14:35:47.224Z,1.00
2022-11-15T14:40:41.289Z,0.80
2022-11-15T14:43:10.707Z,0.80
2022-11-15T14:45:37.294Z,0.50
2022-11-15T14:48:03.967Z,1.40
2022-11-15T14:50:30.414Z,2.30
2022-11-15T14:52:57.254Z,2.30
2022-11-15T14:57:52.994Z,0.80
2022-11-15T15:00:20.261Z,0.60
2022-11-15T15:02:47.735Z,0.50
2022-11-15T15:05:23.875Z,0.50
2022-11-15T15:07:50.880Z,1.30
2022-11-15T15:10:40.163Z,1.50
2022-11-15T15:13:05.111Z,0.80
2022-11-15T15:15:38.153Z,0.50
2022-11-15T15:20:32.765Z,1.50
2022-11-15T15:22:59.194Z,0.80
2022-11-15T15:25:35.092Z,1.60
2022-11-15T15:28:02.096Z,1.20
2022-11-15T15:30:32.917Z,1.60
2022-11-15T15:32:59.637Z,0.70
2022-11-15T15:35:31.049Z,3.50
2022-11-15T15:37:57.653Z,1.40
2022-11-15T15:42:51.236Z,0.70
2022-11-15T15:47:45.635Z,0.50
2022-11-15T15:50:22.618Z,0.50
2022-11-15T15:52:50.785Z,0.80
2022-11-15T15:55:17.331Z,1.30
2022-11-15T15:57:43.855Z,1.50
2022-11-15T16:00:11.517Z,45.20
2022-11-15T16:02:41.122Z,146.20
2022-11-15T16:05:08.855Z,208.80
2022-11-15T16:07:35.489Z,185.20
2022-11-15T16:12:34.238Z,36.90
2022-11-15T16:15:01.586Z,38.10
2022-11-15T16:17:34.658Z,31.50
2022-11-15T16:22:29.581Z,19.20
2022-11-15T16:24:56.841Z,64.10
2022-11-15T16:27:23.466Z,23.20
2022-11-15T16:29:50.100Z,102.80
2022-11-15T16:32:16.728Z,30.00
2022-11-15T16:34:48.547Z,25.90
2022-11-15T16:37:23.160Z,12.00
2022-11-15T16:39:49.960Z,18.00
2022-11-15T16:42:16.497Z,16.00
2022-11-15T16:44:44.363Z,43.10
2022-11-15T16:47:20.069Z,15.40
2022-11-15T16:49:46.952Z,0.50
2022-11-15T16:52:17.492Z,23.40
2022-11-15T16:54:46.680Z,63.20
2022-11-15T16:57:13.111Z,99.00
2022-11-15T16:59:39.462Z,122.20
2022-11-15T17:02:13.190Z,122.90
2022-11-15T17:04:39.879Z,51.10
2022-11-15T17:07:06.460Z,34.00
2022-11-15T17:09:33.873Z,37.40
2022-11-15T17:12:00.423Z,109.80
2022-11-15T17:14:26.940Z,119.60
2022-11-15T17:16:54.769Z,46.10
2022-11-15T17:19:21.305Z,93.70
2022-11-15T17:21:51.010Z,37.30
2022-11-15T17:24:17.687Z,54.90
2022-11-15T17:26:44.235Z,40.10
2022-11-15T17:29:10.807Z,29.60
2022-11-15T17:31:39.039Z,15.30
2022-11-15T17:34:05.976Z,16.10
2022-11-15T17:36:32.819Z,2.20
2022-11-15T17:38:59.931Z,18.80
2022-11-15T17:41:27.887Z,1.10
2022-11-15T17:43:59.175Z,11.40
2022-11-15T17:46:26.327Z,18.00
2022-11-15T17:48:52.965Z,96.30
2022-11-15T17:51:19.412Z,88.90
2022-11-15T17:53:46.763Z,17.40
2022-11-15T17:56:15.719Z,28.40
2022-11-15T17:58:46.304Z,37.30
2022-11-15T18:01:19.853Z,17.80
2022-11-15T18:03:46.811Z,21.20
2022-11-15T18:06:13.879Z,26.50
2022-11-15T18:08:42.658Z,22.40
2022-11-15T18:11:21.187Z,5.70
2022-11-15T18:13:52.521Z,22.90
2022-11-15T18:16:21.437Z,70.00
2022-11-15T18:18:47.886Z,38.10
2022-11-15T18:21:28.654Z,33.40
2022-11-15T18:23:57.185Z,6.30
2022-11-15T18:26:27.172Z,13.00
2022-11-15T18:29:02.519Z,26.50
2022-11-15T18:31:30.110Z,0.60
2022-11-15T18:33:58.797Z,21.80
2022-11-15T18:36:27.403Z,21.20
2022-11-15T18:38:55.305Z,3.40
2022-11-15T18:41:24.685Z,20.40
2022-11-15T18:43:51.981Z,7.40
2022-11-15T18:46:19.945Z,24.90
2022-11-15T18:48:49.743Z,26.60
2022-11-15T18:51:19.607Z,20.70
2022-11-15T18:53:46.424Z,24.20
2022-11-15T18:56:17.019Z,29.80
2022-11-15T18:58:48.444Z,20.30
2022-11-15T19:01:16.741Z,28.20
2022-11-15T19:03:45.911Z,26.80
2022-11-15T19:06:17.610Z,19.30
2022-11-15T19:08:45.578Z,28.10
2022-11-15T19:11:14.828Z,16.70
2022-11-15T19:13:42.254Z,27.30
2022-11-15T19:16:12.025Z,13.70
2022-11-15T19:18:38.512Z,27.60
2022-11-15T19:21:14.841Z,8.20
2022-11-15T19:23:42.713Z,4.10
2022-11-15T19:26:14.862Z,5.00
2022-11-15T19:28:41.526Z,62.60
2022-11-15T19:31:11.654Z,4.60
2022-11-15T19:33:38.502Z,4.80
2022-11-15T19:36:16.580Z,8.40
2022-11-15T19:38:43.205Z,1.00
2022-11-15T19:41:14.911Z,11.60
2022-11-15T19:43:41.443Z,2.90
2022-11-15T19:46:11.044Z,4.20
2022-11-15T19:48:37.769Z,18.20
2022-11-15T19:53:42.662Z,1.00
2022-11-15T19:56:15.654Z,2.40
2022-11-15T19:58:42.525Z,3.80
2022-11-15T20:01:21.176Z,44.50
2022-11-15T20:03:49.510Z,48.10
2022-11-15T20:06:21.443Z,12.90
2022-11-15T20:08:48.077Z,40.90
2022-11-15T20:11:14.695Z,12.30
2022-11-15T20:16:08.760Z,6.30
2022-11-15T20:18:35.696Z,31.40
2022-11-15T20:21:06.036Z,9.90
2022-11-15T20:23:32.804Z,6.90
2022-11-15T20:28:27.206Z,3.60
2022-11-15T20:30:57.247Z,14.00
2022-11-15T20:33:24.601Z,5.70
2022-11-15T20:35:51.130Z,16.50
2022-11-15T20:38:18.523Z,4.40
2022-11-15T20:40:46.116Z,1.10
2022-11-15T20:43:14.273Z,7.10
2022-11-15T20:45:45.369Z,7.00
2022-11-15T20:48:15.391Z,17.80
2022-11-15T20:50:43.744Z,8.10
2022-11-15T20:53:12.165Z,22.70
2022-11-15T20:55:43.234Z,5.30
2022-11-15T20:58:09.895Z,4.20
2022-11-15T21:03:06.911Z,6.00
2022-11-15T21:05:36.978Z,11.50
2022-11-15T21:08:03.592Z,2.20
2022-11-15T21:10:48.527Z,7.90
2022-11-15T21:13:15.639Z,5.50
2022-11-15T21:15:42.533Z,6.40
2022-11-15T21:18:09.114Z,2.40
2022-11-15T21:20:35.964Z,40.10
2022-11-15T21:25:29.858Z,10.20
2022-11-15T21:30:22.875Z,27.40
2022-11-15T21:32:49.617Z,8.40
2022-11-15T21:37:42.806Z,7.30
2022-11-15T21:40:10.156Z,0.80
2022-11-15T21:42:36.607Z,2.30
2022-11-15T21:45:03.582Z,4.00
2022-11-15T21:47:29.981Z,1.80
2022-11-15T21:49:56.447Z,7.50
2022-11-15T21:52:22.858Z,19.50
2022-11-15T21:54:49.319Z,7.80
2022-11-15T21:57:15.756Z,22.20
2022-11-15T22:00:00.726Z,14.60
2022-11-15T22:02:27.175Z,16.70
2022-11-15T22:04:53.808Z,12.40
2022-11-15T22:09:47.331Z,9.40
2022-11-15T22:14:40.742Z,11.00
2022-11-15T22:19:34.660Z,21.40
2022-11-15T22:22:01.528Z,16.80
2022-11-15T22:24:28.565Z,3.50
2022-11-15T22:26:55.254Z,5.70
2022-11-15T22:31:48.514Z,16.10
2022-11-15T22:37:12.975Z,0.70
2022-11-15T22:39:31.458Z,1.70
2022-11-15T22:41:58.541Z,2.20
2022-11-15T22:44:24.982Z,1.10
2022-11-15T22:46:51.486Z,3.30
2022-11-15T22:49:17.962Z,15.90
2022-11-15T22:51:44.464Z,3.20
2022-11-15T22:54:10.992Z,9.10
2022-11-15T22:56:37.921Z,8.00
2022-11-15T22:59:04.368Z,25.30
2022-11-15T23:01:30.882Z,10.60
2022-11-15T23:03:57.435Z,6.20
2022-11-15T23:06:23.978Z,6.40
2022-11-15T23:08:50.450Z,17.60
2022-11-15T23:11:35.902Z,10.60
2022-11-15T23:14:02.389Z,8.70
2022-11-15T23:16:35.120Z,4.10
2022-11-15T23:19:07.364Z,13.00
2022-11-15T23:21:58.411Z,25.50
2022-11-15T23:24:25.065Z,9.30
2022-11-15T23:26:56.439Z,11.20
2022-11-15T23:29:24.538Z,6.50
2022-11-15T23:32:10.962Z,3.80
2022-11-15T23:34:43.417Z,4.20
2022-11-15T23:37:12.130Z,7.60
2022-11-15T23:39:38.709Z,8.40
2022-11-15T23:42:09.097Z,5.00
2022-11-15T23:44:36.432Z,5.20
2022-11-15T23:47:02.938Z,11.20
2022-11-15T23:49:29.401Z,5.10
2022-11-15T23:51:55.948Z,12.90
2022-11-15T23:54:22.471Z,31.60
2022-11-15T23:56:48.965Z,13.70
2022-11-15T23:59:15.499Z,7.50
